sensor_id;sensor_type;location;lat;lon;timestamp;temperature;humidity
53752;DHT22;41095;53.090;6.692;2023-04-05T00:01:30;3.00;99.90
53752;DHT22;41095;53.090;6.692;2023-04-05T00:03:58;3.70;99.90
53752;DHT22;41095;53.090;6.692;2023-04-05T00:06:25;3.20;99.90
53752;DHT22;41095;53.090;6.692;2023-04-05T00:08:55;2.90;99.90
53752;DHT22;41095;53.090;6.692;2023-04-05T00:11:22;2.80;99.90
53752;DHT22;41095;53.090;6.692;2023-04-05T00:13:48;2.90;99.90
53752;DHT22;41095;53.090;6.692;2023-04-05T00:16:15;2.80;99.90
53752;DHT22;41095;53.090;6.692;2023-04-05T00:18:41;2.80;99.90
53752;DHT22;41095;53.090;6.692;2023-04-05T00:21:21;2.90;99.90
53752;DHT22;41095;53.090;6.692;2023-04-05T00:23:48;3.00;99.90
53752;DHT22;41095;53.090;6.692;2023-04-05T00:26:16;3.80;99.90
53752;DHT22;41095;53.090;6.692;2023-04-05T00:28:41;3.20;99.90
53752;DHT22;41095;53.090;6.692;2023-04-05T00:31:07;2.80;99.90
53752;DHT22;41095;53.090;6.692;2023-04-05T00:33:33;2.70;99.90
53752;DHT22;41095;53.090;6.692;2023-04-05T00:36:12;2.70;99.90
53752;DHT22;41095;53.090;6.692;2023-04-05T00:38:39;2.70;99.90
53752;DHT22;41095;53.090;6.692;2023-04-05T00:41:06;2.80;99.90
53752;DHT22;41095;53.090;6.692;2023-04-05T00:43:31;2.30;99.90
53752;DHT22;41095;53.090;6.692;2023-04-05T00:45:57;2.60;99.90
53752;DHT22;41095;53.090;6.692;2023-04-05T00:48:23;2.20;99.90
53752;DHT22;41095;53.090;6.692;2023-04-05T00:50:51;2.30;99.90
53752;DHT22;41095;53.090;6.692;2023-04-05T00:53:18;2.20;99.90
53752;DHT22;41095;53.090;6.692;2023-04-05T00:55:46;2.30;99.90
53752;DHT22;41095;53.090;6.692;2023-04-05T00:58:12;2.20;99.90
53752;DHT22;41095;53.090;6.692;2023-04-05T01:00:39;2.20;99.90
53752;DHT22;41095;53.090;6.692;2023-04-05T01:03:05;2.20;99.90
53752;DHT22;41095;53.090;6.692;2023-04-05T01:05:39;2.70;99.90
53752;DHT22;41095;53.090;6.692;2023-04-05T01:08:25;2.10;99.90
53752;DHT22;41095;53.090;6.692;2023-04-05T01:11:01;2.30;99.90
53752;DHT22;41095;53.090;6.692;2023-04-05T01:13:31;2.10;99.90
53752;DHT22;41095;53.090;6.692;2023-04-05T01:15:57;2.20;99.90
53752;DHT22;41095;53.090;6.692;2023-04-05T01:18:24;2.50;99.90
53752;DHT22;41095;53.090;6.692;2023-04-05T01:29:44;1.80;99.90
53752;DHT22;41095;53.090;6.692;2023-04-05T01:35:15;1.80;99.90
53752;DHT22;41095;53.090;6.692;2023-04-05T01:37:44;1.80;99.90
53752;DHT22;41095;53.090;6.692;2023-04-05T01:40:13;1.70;99.90
53752;DHT22;41095;53.090;6.692;2023-04-05T01:42:39;1.70;99.90
53752;DHT22;41095;53.090;6.692;2023-04-05T01:45:05;1.80;99.90
53752;DHT22;41095;53.090;6.692;2023-04-05T01:47:31;1.80;99.90
53752;DHT22;41095;53.090;6.692;2023-04-05T01:49:56;2.10;99.90
53752;DHT22;41095;53.090;6.692;2023-04-05T01:52:22;2.00;99.90
53752;DHT22;41095;53.090;6.692;2023-04-05T01:54:48;1.80;99.90
53752;DHT22;41095;53.090;6.692;2023-04-05T01:57:13;0.50;99.90
53752;DHT22;41095;53.090;6.692;2023-04-05T01:59:39;1.70;99.90
53752;DHT22;41095;53.090;6.692;2023-04-05T02:02:05;2.20;99.90
53752;DHT22;41095;53.090;6.692;2023-04-05T02:04:31;1.70;99.90
53752;DHT22;41095;53.090;6.692;2023-04-05T02:06:56;1.70;99.90
53752;DHT22;41095;53.090;6.692;2023-04-05T02:09:22;1.90;99.90
53752;DHT22;41095;53.090;6.692;2023-04-05T02:11:48;1.70;99.90
53752;DHT22;41095;53.090;6.692;2023-04-05T02:14:13;3.00;99.90
53752;DHT22;41095;53.090;6.692;2023-04-05T02:16:39;2.30;99.90
53752;DHT22;41095;53.090;6.692;2023-04-05T02:19:05;1.70;99.90
53752;DHT22;41095;53.090;6.692;2023-04-05T02:21:31;2.00;99.90
53752;DHT22;41095;53.090;6.692;2023-04-05T02:23:57;1.70;99.90
53752;DHT22;41095;53.090;6.692;2023-04-05T02:26:22;1.60;99.90
53752;DHT22;41095;53.090;6.692;2023-04-05T02:28:48;2.30;99.90
53752;DHT22;41095;53.090;6.692;2023-04-05T02:31:14;1.60;99.90
53752;DHT22;41095;53.090;6.692;2023-04-05T02:33:40;1.60;99.90
53752;DHT22;41095;53.090;6.692;2023-04-05T02:36:11;2.00;99.90
53752;DHT22;41095;53.090;6.692;2023-04-05T02:38:37;1.60;99.90
53752;DHT22;41095;53.090;6.692;2023-04-05T02:41:06;1.50;99.90
53752;DHT22;41095;53.090;6.692;2023-04-05T02:43:32;1.40;99.90
53752;DHT22;41095;53.090;6.692;2023-04-05T02:45:59;1.40;99.90
53752;DHT22;41095;53.090;6.692;2023-04-05T02:48:25;1.30;99.90
53752;DHT22;41095;53.090;6.692;2023-04-05T02:50:50;2.40;99.90
53752;DHT22;41095;53.090;6.692;2023-04-05T02:53:16;1.30;99.90
53752;DHT22;41095;53.090;6.692;2023-04-05T02:55:50;1.40;99.90
53752;DHT22;41095;53.090;6.692;2023-04-05T02:58:17;1.40;99.90
53752;DHT22;41095;53.090;6.692;2023-04-05T03:00:47;1.40;99.90
53752;DHT22;41095;53.090;6.692;2023-04-05T03:03:17;1.30;99.90
53752;DHT22;41095;53.090;6.692;2023-04-05T03:05:43;1.30;99.90
53752;DHT22;41095;53.090;6.692;2023-04-05T03:08:09;1.10;99.90
53752;DHT22;41095;53.090;6.692;2023-04-05T03:10:45;1.10;99.90
53752;DHT22;41095;53.090;6.692;2023-04-05T03:13:12;1.40;99.90
53752;DHT22;41095;53.090;6.692;2023-04-05T03:15:38;1.00;99.90
53752;DHT22;41095;53.090;6.692;2023-04-05T03:18:04;1.20;99.90
53752;DHT22;41095;53.090;6.692;2023-04-05T03:20:29;1.00;99.90
53752;DHT22;41095;53.090;6.692;2023-04-05T03:22:55;1.40;99.90
53752;DHT22;41095;53.090;6.692;2023-04-05T03:25:20;1.10;99.90
53752;DHT22;41095;53.090;6.692;2023-04-05T03:27:46;1.00;99.90
53752;DHT22;41095;53.090;6.692;2023-04-05T03:30:12;1.00;99.90
53752;DHT22;41095;53.090;6.692;2023-04-05T03:32:38;1.00;99.90
53752;DHT22;41095;53.090;6.692;2023-04-05T03:35:04;1.00;99.90
53752;DHT22;41095;53.090;6.692;2023-04-05T03:37:30;1.00;99.90
53752;DHT22;41095;53.090;6.692;2023-04-05T03:39:56;1.50;99.90
53752;DHT22;41095;53.090;6.692;2023-04-05T03:42:21;2.30;99.90
53752;DHT22;41095;53.090;6.692;2023-04-05T03:44:51;1.70;99.90
53752;DHT22;41095;53.090;6.692;2023-04-05T03:47:16;0.90;99.90
53752;DHT22;41095;53.090;6.692;2023-04-05T03:49:42;0.90;99.90
53752;DHT22;41095;53.090;6.692;2023-04-05T03:52:08;0.90;99.90
53752;DHT22;41095;53.090;6.692;2023-04-05T03:54:34;1.70;99.90
53752;DHT22;41095;53.090;6.692;2023-04-05T03:57:00;1.20;99.90
53752;DHT22;41095;53.090;6.692;2023-04-05T03:59:26;0.80;99.90
53752;DHT22;41095;53.090;6.692;2023-04-05T04:01:52;0.90;99.90
53752;DHT22;41095;53.090;6.692;2023-04-05T04:04:18;0.90;99.90
53752;DHT22;41095;53.090;6.692;2023-04-05T04:06:43;0.90;99.90
53752;DHT22;41095;53.090;6.692;2023-04-05T04:09:10;1.00;99.90
53752;DHT22;41095;53.090;6.692;2023-04-05T04:11:35;1.00;99.90
53752;DHT22;41095;53.090;6.692;2023-04-05T04:14:01;1.10;99.90
53752;DHT22;41095;53.090;6.692;2023-04-05T04:16:26;1.20;99.90
53752;DHT22;41095;53.090;6.692;2023-04-05T04:18:52;1.20;99.90
53752;DHT22;41095;53.090;6.692;2023-04-05T04:21:19;1.20;99.90
53752;DHT22;41095;53.090;6.692;2023-04-05T04:23:52;1.80;99.90
53752;DHT22;41095;53.090;6.692;2023-04-05T04:26:20;1.20;99.90
53752;DHT22;41095;53.090;6.692;2023-04-05T04:28:54;1.20;99.90
53752;DHT22;41095;53.090;6.692;2023-04-05T04:31:20;1.20;99.90
53752;DHT22;41095;53.090;6.692;2023-04-05T04:33:48;1.10;99.90
53752;DHT22;41095;53.090;6.692;2023-04-05T04:36:14;1.10;99.90
53752;DHT22;41095;53.090;6.692;2023-04-05T04:38:40;1.50;99.90
53752;DHT22;41095;53.090;6.692;2023-04-05T04:41:10;1.00;99.90
53752;DHT22;41095;53.090;6.692;2023-04-05T04:43:36;1.00;99.90
53752;DHT22;41095;53.090;6.692;2023-04-05T04:46:08;1.00;99.90
53752;DHT22;41095;53.090;6.692;2023-04-05T04:48:40;1.10;99.90
53752;DHT22;41095;53.090;6.692;2023-04-05T04:51:06;1.00;99.90
53752;DHT22;41095;53.090;6.692;2023-04-05T04:53:32;0.90;99.90
53752;DHT22;41095;53.090;6.692;2023-04-05T04:55:58;0.90;99.90
53752;DHT22;41095;53.090;6.692;2023-04-05T04:58:24;0.80;99.90
53752;DHT22;41095;53.090;6.692;2023-04-05T05:00:49;1.30;99.90
53752;DHT22;41095;53.090;6.692;2023-04-05T05:03:17;0.80;99.90
53752;DHT22;41095;53.090;6.692;2023-04-05T05:05:44;0.70;99.90
53752;DHT22;41095;53.090;6.692;2023-04-05T05:08:12;0.90;99.90
53752;DHT22;41095;53.090;6.692;2023-04-05T05:10:38;1.50;99.90
53752;DHT22;41095;53.090;6.692;2023-04-05T05:13:04;0.60;99.90
53752;DHT22;41095;53.090;6.692;2023-04-05T05:15:30;2.00;99.90
53752;DHT22;41095;53.090;6.692;2023-04-05T05:17:56;0.60;99.90
53752;DHT22;41095;53.090;6.692;2023-04-05T05:20:23;1.20;99.90
53752;DHT22;41095;53.090;6.692;2023-04-05T05:22:49;0.80;99.90
53752;DHT22;41095;53.090;6.692;2023-04-05T05:25:15;1.40;99.90
53752;DHT22;41095;53.090;6.692;2023-04-05T05:27:41;0.80;99.90
53752;DHT22;41095;53.090;6.692;2023-04-05T05:30:07;0.70;99.90
53752;DHT22;41095;53.090;6.692;2023-04-05T05:32:33;0.60;99.90
53752;DHT22;41095;53.090;6.692;2023-04-05T05:34:59;0.60;99.90
53752;DHT22;41095;53.090;6.692;2023-04-05T05:37:29;0.50;99.90
53752;DHT22;41095;53.090;6.692;2023-04-05T05:39:55;0.50;99.90
53752;DHT22;41095;53.090;6.692;2023-04-05T05:42:21;0.60;99.90
53752;DHT22;41095;53.090;6.692;2023-04-05T05:44:47;0.80;99.90
53752;DHT22;41095;53.090;6.692;2023-04-05T05:47:13;0.70;99.90
53752;DHT22;41095;53.090;6.692;2023-04-05T05:49:38;0.80;99.90
53752;DHT22;41095;53.090;6.692;2023-04-05T05:52:04;0.90;99.90
53752;DHT22;41095;53.090;6.692;2023-04-05T05:54:30;1.00;99.90
53752;DHT22;41095;53.090;6.692;2023-04-05T05:56:56;1.80;99.90
53752;DHT22;41095;53.090;6.692;2023-04-05T05:59:22;1.20;99.90
53752;DHT22;41095;53.090;6.692;2023-04-05T06:01:47;1.20;99.90
53752;DHT22;41095;53.090;6.692;2023-04-05T06:04:15;1.20;99.90
53752;DHT22;41095;53.090;6.692;2023-04-05T06:06:41;1.30;99.90
53752;DHT22;41095;53.090;6.692;2023-04-05T06:09:09;1.30;99.90
53752;DHT22;41095;53.090;6.692;2023-04-05T06:11:35;1.40;99.90
53752;DHT22;41095;53.090;6.692;2023-04-05T06:14:01;1.40;99.90
53752;DHT22;41095;53.090;6.692;2023-04-05T06:16:26;1.40;99.90
53752;DHT22;41095;53.090;6.692;2023-04-05T06:18:52;1.50;99.90
53752;DHT22;41095;53.090;6.692;2023-04-05T06:21:19;1.50;99.90
53752;DHT22;41095;53.090;6.692;2023-04-05T06:23:46;1.50;99.90
53752;DHT22;41095;53.090;6.692;2023-04-05T06:26:20;1.60;99.90
53752;DHT22;41095;53.090;6.692;2023-04-05T06:28:48;1.70;99.90
53752;DHT22;41095;53.090;6.692;2023-04-05T06:31:14;1.70;99.90
53752;DHT22;41095;53.090;6.692;2023-04-05T06:33:41;1.70;99.90
53752;DHT22;41095;53.090;6.692;2023-04-05T06:36:07;1.80;99.90
53752;DHT22;41095;53.090;6.692;2023-04-05T06:38:33;1.80;99.90
53752;DHT22;41095;53.090;6.692;2023-04-05T06:40:58;1.90;99.90
53752;DHT22;41095;53.090;6.692;2023-04-05T06:43:24;1.90;99.90
53752;DHT22;41095;53.090;6.692;2023-04-05T06:45:50;2.00;99.90
53752;DHT22;41095;53.090;6.692;2023-04-05T06:48:16;2.40;99.90
53752;DHT22;41095;53.090;6.692;2023-04-05T06:50:42;2.10;99.90
53752;DHT22;41095;53.090;6.692;2023-04-05T06:53:07;2.40;99.90
53752;DHT22;41095;53.090;6.692;2023-04-05T06:55:33;2.30;99.90
53752;DHT22;41095;53.090;6.692;2023-04-05T06:57:59;2.50;99.90
53752;DHT22;41095;53.090;6.692;2023-04-05T07:00:25;3.20;99.90
53752;DHT22;41095;53.090;6.692;2023-04-05T07:02:50;2.80;99.90
53752;DHT22;41095;53.090;6.692;2023-04-05T07:05:16;3.30;99.90
53752;DHT22;41095;53.090;6.692;2023-04-05T07:07:42;2.70;99.90
53752;DHT22;41095;53.090;6.692;2023-04-05T07:10:10;2.90;99.90
53752;DHT22;41095;53.090;6.692;2023-04-05T07:12:36;3.00;99.90
53752;DHT22;41095;53.090;6.692;2023-04-05T07:15:02;3.70;99.90
53752;DHT22;41095;53.090;6.692;2023-04-05T07:17:28;3.10;99.90
53752;DHT22;41095;53.090;6.692;2023-04-05T07:19:54;3.20;99.90
53752;DHT22;41095;53.090;6.692;2023-04-05T07:22:20;3.40;99.90
53752;DHT22;41095;53.090;6.692;2023-04-05T07:24:45;3.50;99.90
53752;DHT22;41095;53.090;6.692;2023-04-05T07:27:11;3.80;99.90
53752;DHT22;41095;53.090;6.692;2023-04-05T07:29:38;4.50;99.90
53752;DHT22;41095;53.090;6.692;2023-04-05T07:32:08;6.00;99.90
53752;DHT22;41095;53.090;6.692;2023-04-05T07:34:34;7.40;99.90
53752;DHT22;41095;53.090;6.692;2023-04-05T07:37:04;8.80;99.90
53752;DHT22;41095;53.090;6.692;2023-04-05T07:39:31;9.90;99.90
53752;DHT22;41095;53.090;6.692;2023-04-05T07:41:57;10.30;99.90
53752;DHT22;41095;53.090;6.692;2023-04-05T07:44:24;10.60;99.90
53752;DHT22;41095;53.090;6.692;2023-04-05T07:46:49;10.90;99.90
53752;DHT22;41095;53.090;6.692;2023-04-05T07:49:15;11.50;99.90
53752;DHT22;41095;53.090;6.692;2023-04-05T07:51:41;11.80;99.90
53752;DHT22;41095;53.090;6.692;2023-04-05T07:54:08;12.60;99.90
53752;DHT22;41095;53.090;6.692;2023-04-05T07:56:36;13.10;99.90
53752;DHT22;41095;53.090;6.692;2023-04-05T07:59:02;13.30;99.90
53752;DHT22;41095;53.090;6.692;2023-04-05T08:01:28;13.90;99.90
53752;DHT22;41095;53.090;6.692;2023-04-05T08:03:53;13.90;99.30
53752;DHT22;41095;53.090;6.692;2023-04-05T08:06:22;13.60;96.70
53752;DHT22;41095;53.090;6.692;2023-04-05T08:08:48;13.80;97.90
53752;DHT22;41095;53.090;6.692;2023-04-05T08:11:13;13.50;96.00
53752;DHT22;41095;53.090;6.692;2023-04-05T08:13:39;14.00;96.20
53752;DHT22;41095;53.090;6.692;2023-04-05T08:16:09;14.50;96.30
53752;DHT22;41095;53.090;6.692;2023-04-05T08:18:36;14.80;92.30
53752;DHT22;41095;53.090;6.692;2023-04-05T08:21:02;14.80;94.00
53752;DHT22;41095;53.090;6.692;2023-04-05T08:23:28;15.20;94.20
53752;DHT22;41095;53.090;6.692;2023-04-05T08:25:54;15.20;93.10
53752;DHT22;41095;53.090;6.692;2023-04-05T08:28:19;15.00;92.90
53752;DHT22;41095;53.090;6.692;2023-04-05T08:30:46;15.10;92.80
53752;DHT22;41095;53.090;6.692;2023-04-05T08:33:11;15.10;92.30
53752;DHT22;41095;53.090;6.692;2023-04-05T08:35:38;15.30;92.90
53752;DHT22;41095;53.090;6.692;2023-04-05T08:38:05;15.30;91.70
53752;DHT22;41095;53.090;6.692;2023-04-05T08:40:43;15.00;90.80
53752;DHT22;41095;53.090;6.692;2023-04-05T08:43:22;15.50;90.60
53752;DHT22;41095;53.090;6.692;2023-04-05T08:45:51;15.70;87.90
53752;DHT22;41095;53.090;6.692;2023-04-05T08:48:18;16.20;90.50
53752;DHT22;41095;53.090;6.692;2023-04-05T08:50:54;15.40;85.50
53752;DHT22;41095;53.090;6.692;2023-04-05T08:53:20;15.10;86.70
53752;DHT22;41095;53.090;6.692;2023-04-05T08:55:49;15.40;88.50
53752;DHT22;41095;53.090;6.692;2023-04-05T08:58:19;16.00;87.70
53752;DHT22;41095;53.090;6.692;2023-04-05T09:00:46;16.40;86.00
53752;DHT22;41095;53.090;6.692;2023-04-05T09:03:16;16.80;85.30
53752;DHT22;41095;53.090;6.692;2023-04-05T09:05:47;17.20;84.00
53752;DHT22;41095;53.090;6.692;2023-04-05T09:08:13;17.50;80.30
53752;DHT22;41095;53.090;6.692;2023-04-05T09:10:39;17.70;81.60
53752;DHT22;41095;53.090;6.692;2023-04-05T09:13:05;17.30;79.50
53752;DHT22;41095;53.090;6.692;2023-04-05T09:15:36;16.10;74.90
53752;DHT22;41095;53.090;6.692;2023-04-05T09:18:02;15.90;80.40
53752;DHT22;41095;53.090;6.692;2023-04-05T09:20:28;15.50;79.10
53752;DHT22;41095;53.090;6.692;2023-04-05T09:22:55;15.80;79.90
53752;DHT22;41095;53.090;6.692;2023-04-05T09:27:57;16.70;77.00
53752;DHT22;41095;53.090;6.692;2023-04-05T09:30:24;16.60;78.00
53752;DHT22;41095;53.090;6.692;2023-04-05T09:32:54;15.60;76.50
53752;DHT22;41095;53.090;6.692;2023-04-05T09:35:24;15.20;73.30
53752;DHT22;41095;53.090;6.692;2023-04-05T09:37:54;15.90;76.90
53752;DHT22;41095;53.090;6.692;2023-04-05T09:40:21;16.30;76.70
53752;DHT22;41095;53.090;6.692;2023-04-05T09:42:47;16.30;75.50
53752;DHT22;41095;53.090;6.692;2023-04-05T09:45:14;16.70;75.30
53752;DHT22;41095;53.090;6.692;2023-04-05T09:47:40;17.30;73.90
53752;DHT22;41095;53.090;6.692;2023-04-05T09:50:18;17.60;73.10
53752;DHT22;41095;53.090;6.692;2023-04-05T09:52:44;17.60;68.70
53752;DHT22;41095;53.090;6.692;2023-04-05T09:55:10;17.30;66.10
53752;DHT22;41095;53.090;6.692;2023-04-05T09:57:38;16.40;68.80
53752;DHT22;41095;53.090;6.692;2023-04-05T10:00:06;16.50;70.50
53752;DHT22;41095;53.090;6.692;2023-04-05T10:02:41;16.80;69.30
53752;DHT22;41095;53.090;6.692;2023-04-05T10:05:10;16.70;68.20
53752;DHT22;41095;53.090;6.692;2023-04-05T10:07:46;17.20;68.40
53752;DHT22;41095;53.090;6.692;2023-04-05T10:10:13;17.60;62.10
53752;DHT22;41095;53.090;6.692;2023-04-05T10:12:41;18.10;67.40
53752;DHT22;41095;53.090;6.692;2023-04-05T10:15:07;18.50;67.10
53752;DHT22;41095;53.090;6.692;2023-04-05T10:20:14;18.90;65.10
53752;DHT22;41095;53.090;6.692;2023-04-05T10:22:48;19.10;64.50
53752;DHT22;41095;53.090;6.692;2023-04-05T10:25:20;19.10;59.90
53752;DHT22;41095;53.090;6.692;2023-04-05T10:27:53;19.70;65.10
53752;DHT22;41095;53.090;6.692;2023-04-05T10:30:23;19.20;60.30
53752;DHT22;41095;53.090;6.692;2023-04-05T10:35:18;18.00;61.30
53752;DHT22;41095;53.090;6.692;2023-04-05T10:37:53;18.00;60.20
53752;DHT22;41095;53.090;6.692;2023-04-05T10:40:20;17.90;58.70
53752;DHT22;41095;53.090;6.692;2023-04-05T10:42:47;17.40;61.20
53752;DHT22;41095;53.090;6.692;2023-04-05T10:45:16;17.60;62.00
53752;DHT22;41095;53.090;6.692;2023-04-05T10:47:57;17.90;61.00
53752;DHT22;41095;53.090;6.692;2023-04-05T10:50:24;17.90;59.40
53752;DHT22;41095;53.090;6.692;2023-04-05T10:52:51;17.60;59.50
53752;DHT22;41095;53.090;6.692;2023-04-05T10:55:18;17.00;59.00
53752;DHT22;41095;53.090;6.692;2023-04-05T10:57:45;15.30;60.20
53752;DHT22;41095;53.090;6.692;2023-04-05T11:00:12;14.10;61.50
53752;DHT22;41095;53.090;6.692;2023-04-05T11:02:39;13.10;63.70
53752;DHT22;41095;53.090;6.692;2023-04-05T11:05:07;12.50;64.70
53752;DHT22;41095;53.090;6.692;2023-04-05T11:07:52;12.20;65.20
53752;DHT22;41095;53.090;6.692;2023-04-05T11:10:21;12.00;65.60
53752;DHT22;41095;53.090;6.692;2023-04-05T11:20:48;11.20;65.90
53752;DHT22;41095;53.090;6.692;2023-04-05T11:23:17;11.50;66.90
53752;DHT22;41095;53.090;6.692;2023-04-05T11:25:52;11.60;66.30
53752;DHT22;41095;53.090;6.692;2023-04-05T11:28:36;11.60;66.30
53752;DHT22;41095;53.090;6.692;2023-04-05T11:31:19;11.70;66.40
53752;DHT22;41095;53.090;6.692;2023-04-05T11:36:12;11.80;67.30
53752;DHT22;41095;53.090;6.692;2023-04-05T11:38:43;12.00;66.90
53752;DHT22;41095;53.090;6.692;2023-04-05T11:41:14;12.00;66.50
53752;DHT22;41095;53.090;6.692;2023-04-05T11:43:45;11.80;64.00
53752;DHT22;41095;53.090;6.692;2023-04-05T11:46:15;11.80;65.40
53752;DHT22;41095;53.090;6.692;2023-04-05T11:48:41;11.70;65.90
53752;DHT22;41095;53.090;6.692;2023-04-05T11:51:08;11.30;65.60
53752;DHT22;41095;53.090;6.692;2023-04-05T11:53:36;11.30;65.80
53752;DHT22;41095;53.090;6.692;2023-04-05T11:56:06;11.50;65.90
53752;DHT22;41095;53.090;6.692;2023-04-05T11:58:35;11.60;64.70
53752;DHT22;41095;53.090;6.692;2023-04-05T12:01:03;11.60;64.70
53752;DHT22;41095;53.090;6.692;2023-04-05T12:03:29;11.80;64.40
53752;DHT22;41095;53.090;6.692;2023-04-05T12:05:56;11.70;63.70
53752;DHT22;41095;53.090;6.692;2023-04-05T12:08:22;11.50;64.10
53752;DHT22;41095;53.090;6.692;2023-04-05T12:13:27;11.90;64.40
53752;DHT22;41095;53.090;6.692;2023-04-05T12:15:57;12.00;64.10
53752;DHT22;41095;53.090;6.692;2023-04-05T12:18:24;11.90;64.10
53752;DHT22;41095;53.090;6.692;2023-04-05T12:20:52;12.00;64.20
53752;DHT22;41095;53.090;6.692;2023-04-05T12:23:18;12.10;63.80
53752;DHT22;41095;53.090;6.692;2023-04-05T12:25:49;11.90;62.10
53752;DHT22;41095;53.090;6.692;2023-04-05T12:28:15;12.10;64.80
53752;DHT22;41095;53.090;6.692;2023-04-05T12:30:52;12.20;64.60
53752;DHT22;41095;53.090;6.692;2023-04-05T12:33:31;12.20;64.50
53752;DHT22;41095;53.090;6.692;2023-04-05T12:35:59;12.10;64.70
53752;DHT22;41095;53.090;6.692;2023-04-05T12:38:29;12.10;64.80
53752;DHT22;41095;53.090;6.692;2023-04-05T12:41:02;12.20;64.80
53752;DHT22;41095;53.090;6.692;2023-04-05T12:43:41;12.30;63.70
53752;DHT22;41095;53.090;6.692;2023-04-05T12:46:11;12.30;63.60
53752;DHT22;41095;53.090;6.692;2023-04-05T12:48:41;12.30;64.80
53752;DHT22;41095;53.090;6.692;2023-04-05T12:51:14;12.50;64.70
53752;DHT22;41095;53.090;6.692;2023-04-05T12:53:44;12.50;64.00
53752;DHT22;41095;53.090;6.692;2023-04-05T12:56:11;12.40;65.50
53752;DHT22;41095;53.090;6.692;2023-04-05T12:58:38;12.40;65.10
53752;DHT22;41095;53.090;6.692;2023-04-05T13:01:04;12.50;63.70
53752;DHT22;41095;53.090;6.692;2023-04-05T13:03:30;12.50;63.40
53752;DHT22;41095;53.090;6.692;2023-04-05T13:05:56;12.50;62.90
53752;DHT22;41095;53.090;6.692;2023-04-05T13:08:23;12.50;63.90
53752;DHT22;41095;53.090;6.692;2023-04-05T13:10:49;12.60;63.80
53752;DHT22;41095;53.090;6.692;2023-04-05T13:13:17;12.40;65.40
53752;DHT22;41095;53.090;6.692;2023-04-05T13:15:45;12.50;63.20
53752;DHT22;41095;53.090;6.692;2023-04-05T13:18:11;12.60;65.20
53752;DHT22;41095;53.090;6.692;2023-04-05T13:20:40;12.50;64.40
53752;DHT22;41095;53.090;6.692;2023-04-05T13:23:06;12.70;64.00
53752;DHT22;41095;53.090;6.692;2023-04-05T13:25:36;12.70;64.00
53752;DHT22;41095;53.090;6.692;2023-04-05T13:28:01;12.80;65.60
53752;DHT22;41095;53.090;6.692;2023-04-05T13:30:27;13.00;65.20
53752;DHT22;41095;53.090;6.692;2023-04-05T13:32:54;13.00;64.60
53752;DHT22;41095;53.090;6.692;2023-04-05T13:35:20;13.00;64.50
53752;DHT22;41095;53.090;6.692;2023-04-05T13:37:46;12.70;62.70
53752;DHT22;41095;53.090;6.692;2023-04-05T13:40:12;12.60;63.70
53752;DHT22;41095;53.090;6.692;2023-04-05T13:42:37;12.60;63.70
53752;DHT22;41095;53.090;6.692;2023-04-05T13:45:04;12.70;63.70
53752;DHT22;41095;53.090;6.692;2023-04-05T13:47:29;12.80;63.20
53752;DHT22;41095;53.090;6.692;2023-04-05T13:49:55;12.90;65.90
53752;DHT22;41095;53.090;6.692;2023-04-05T13:52:21;13.00;64.50
53752;DHT22;41095;53.090;6.692;2023-04-05T13:54:47;12.70;60.60
53752;DHT22;41095;53.090;6.692;2023-04-05T13:57:12;12.60;63.50
53752;DHT22;41095;53.090;6.692;2023-04-05T13:59:39;12.40;64.10
53752;DHT22;41095;53.090;6.692;2023-04-05T14:02:05;12.40;64.00
53752;DHT22;41095;53.090;6.692;2023-04-05T14:04:31;12.40;65.20
53752;DHT22;41095;53.090;6.692;2023-04-05T14:06:56;12.60;64.80
53752;DHT22;41095;53.090;6.692;2023-04-05T14:09:22;12.80;64.70
53752;DHT22;41095;53.090;6.692;2023-04-05T14:11:48;12.90;62.50
53752;DHT22;41095;53.090;6.692;2023-04-05T14:14:13;13.00;63.60
53752;DHT22;41095;53.090;6.692;2023-04-05T14:16:39;13.20;64.30
53752;DHT22;41095;53.090;6.692;2023-04-05T14:19:05;13.20;62.70
53752;DHT22;41095;53.090;6.692;2023-04-05T14:21:31;13.20;63.10
53752;DHT22;41095;53.090;6.692;2023-04-05T14:23:57;13.30;62.50
53752;DHT22;41095;53.090;6.692;2023-04-05T14:26:24;13.20;62.40
53752;DHT22;41095;53.090;6.692;2023-04-05T14:28:51;13.80;63.70
53752;DHT22;41095;53.090;6.692;2023-04-05T14:31:17;13.10;63.50
53752;DHT22;41095;53.090;6.692;2023-04-05T14:33:42;13.30;63.70
53752;DHT22;41095;53.090;6.692;2023-04-05T14:36:08;12.80;61.90
53752;DHT22;41095;53.090;6.692;2023-04-05T14:38:34;12.50;61.90
53752;DHT22;41095;53.090;6.692;2023-04-05T14:40:59;12.40;62.60
53752;DHT22;41095;53.090;6.692;2023-04-05T14:43:25;12.40;63.50
53752;DHT22;41095;53.090;6.692;2023-04-05T14:45:51;12.50;63.90
53752;DHT22;41095;53.090;6.692;2023-04-05T14:48:17;12.40;63.60
53752;DHT22;41095;53.090;6.692;2023-04-05T14:50:43;12.30;62.60
53752;DHT22;41095;53.090;6.692;2023-04-05T14:53:08;12.30;65.40
53752;DHT22;41095;53.090;6.692;2023-04-05T14:55:35;12.40;64.80
53752;DHT22;41095;53.090;6.692;2023-04-05T14:58:01;12.40;64.50
53752;DHT22;41095;53.090;6.692;2023-04-05T15:00:26;12.50;63.60
53752;DHT22;41095;53.090;6.692;2023-04-05T15:02:52;12.60;63.80
53752;DHT22;41095;53.090;6.692;2023-04-05T15:05:18;12.50;63.50
53752;DHT22;41095;53.090;6.692;2023-04-05T15:07:44;12.40;63.90
53752;DHT22;41095;53.090;6.692;2023-04-05T15:10:10;12.50;62.90
53752;DHT22;41095;53.090;6.692;2023-04-05T15:12:35;12.40;63.10
53752;DHT22;41095;53.090;6.692;2023-04-05T15:15:01;12.40;63.90
53752;DHT22;41095;53.090;6.692;2023-04-05T15:17:27;12.60;64.90
53752;DHT22;41095;53.090;6.692;2023-04-05T15:19:53;12.70;64.70
53752;DHT22;41095;53.090;6.692;2023-04-05T15:22:18;12.70;63.60
53752;DHT22;41095;53.090;6.692;2023-04-05T15:24:47;12.70;64.30
53752;DHT22;41095;53.090;6.692;2023-04-05T15:27:13;12.50;64.20
53752;DHT22;41095;53.090;6.692;2023-04-05T15:29:39;12.40;63.90
53752;DHT22;41095;53.090;6.692;2023-04-05T15:32:05;12.40;63.50
53752;DHT22;41095;53.090;6.692;2023-04-05T15:34:30;12.50;63.90
53752;DHT22;41095;53.090;6.692;2023-04-05T15:36:56;12.60;67.40
53752;DHT22;41095;53.090;6.692;2023-04-05T15:39:22;12.60;66.10
53752;DHT22;41095;53.090;6.692;2023-04-05T15:41:49;12.60;64.30
53752;DHT22;41095;53.090;6.692;2023-04-05T15:44:15;12.60;64.40
53752;DHT22;41095;53.090;6.692;2023-04-05T15:46:41;12.60;63.80
53752;DHT22;41095;53.090;6.692;2023-04-05T15:49:07;12.40;63.10
53752;DHT22;41095;53.090;6.692;2023-04-05T15:51:34;12.40;63.30
53752;DHT22;41095;53.090;6.692;2023-04-05T15:54:01;12.40;63.30
53752;DHT22;41095;53.090;6.692;2023-04-05T15:56:26;12.40;63.10
53752;DHT22;41095;53.090;6.692;2023-04-05T15:58:52;12.40;64.90
53752;DHT22;41095;53.090;6.692;2023-04-05T16:01:18;12.50;64.10
53752;DHT22;41095;53.090;6.692;2023-04-05T16:03:43;12.50;63.60
53752;DHT22;41095;53.090;6.692;2023-04-05T16:06:09;12.20;62.90
53752;DHT22;41095;53.090;6.692;2023-04-05T16:08:35;12.00;62.40
53752;DHT22;41095;53.090;6.692;2023-04-05T16:11:01;11.90;65.20